createdAt,value
2023-01-17T00:01:14.273Z,75.48
2023-01-17T00:03:15.784Z,74.55
2023-01-17T00:05:35.765Z,74.57
2023-01-17T00:07:55.651Z,74.20
2023-01-17T00:09:58.254Z,74.29
2023-01-17T00:12:00.332Z,74.22
2023-01-17T00:14:01.793Z,73.89
2023-01-17T00:16:03.332Z,73.77
2023-01-17T00:18:04.891Z,73.60
2023-01-17T00:20:25.015Z,74.03
2023-01-17T00:22:45.835Z,73.91
2023-01-17T00:25:05.752Z,74.25
2023-01-17T00:27:12.787Z,73.61
2023-01-17T00:29:14.221Z,74.38
2023-01-17T00:31:16.012Z,74.69
2023-01-17T00:33:17.711Z,74.32
2023-01-17T00:35:19.464Z,74.22
2023-01-17T00:37:20.939Z,74.81
2023-01-17T00:39:22.317Z,73.58
2023-01-17T00:41:23.774Z,74.44
2023-01-17T00:43:43.807Z,74.42
2023-01-17T00:46:04.177Z,74.99
2023-01-17T00:48:24.396Z,75.35
2023-01-17T00:50:44.319Z,74.91
2023-01-17T00:53:04.236Z,74.17
2023-01-17T00:55:24.751Z,74.00
2023-01-17T00:57:44.642Z,74.64
2023-01-17T01:00:04.995Z,74.32
2023-01-17T01:02:27.593Z,73.84
2023-01-17T01:04:48.739Z,74.13
2023-01-17T01:07:08.627Z,74.87
2023-01-17T01:09:28.541Z,74.87
2023-01-17T01:11:48.792Z,75.40
2023-01-17T01:14:08.724Z,75.35
2023-01-17T01:16:29.267Z,74.88
2023-01-17T01:18:49.371Z,75.18
2023-01-17T01:21:09.302Z,75.65
2023-01-17T01:23:29.216Z,75.66
2023-01-17T01:25:49.361Z,74.15
2023-01-17T01:28:09.253Z,75.04
2023-01-17T01:30:29.531Z,75.33
2023-01-17T01:32:53.363Z,75.80
2023-01-17T01:34:54.840Z,75.77
2023-01-17T01:36:56.366Z,75.41
2023-01-17T01:38:57.939Z,75.51
2023-01-17T01:40:59.432Z,75.17
2023-01-17T01:43:03.209Z,74.60
2023-01-17T01:45:16.557Z,74.14
2023-01-17T01:47:22.972Z,74.72
2023-01-17T01:49:25.120Z,73.86
2023-01-17T01:51:28.342Z,73.84
2023-01-17T01:53:29.904Z,74.36
2023-01-17T01:55:33.065Z,75.22
2023-01-17T01:57:35.830Z,74.71
2023-01-17T01:59:38.399Z,74.78
2023-01-17T02:01:40.090Z,74.40
2023-01-17T02:03:41.717Z,74.49
2023-01-17T02:05:43.768Z,75.66
2023-01-17T02:07:50.692Z,75.83
2023-01-17T02:09:52.581Z,76.21
2023-01-17T02:11:54.118Z,76.12
2023-01-17T02:13:55.598Z,76.10
2023-01-17T02:16:03.927Z,75.77
2023-01-17T02:18:11.553Z,75.76
2023-01-17T02:20:13.101Z,75.42
2023-01-17T02:22:26.939Z,74.69
2023-01-17T02:24:47.060Z,74.87
2023-01-17T02:26:51.305Z,74.34
2023-01-17T02:29:01.605Z,74.05
2023-01-17T02:31:04.696Z,74.30
2023-01-17T02:33:08.352Z,73.58
2023-01-17T02:35:12.966Z,73.99
2023-01-17T02:37:14.379Z,75.01
2023-01-17T02:39:17.715Z,75.46
2023-01-17T02:41:28.271Z,75.61
2023-01-17T02:43:29.783Z,75.26
2023-01-17T02:45:31.322Z,75.85
2023-01-17T02:47:32.891Z,76.44
2023-01-17T02:49:34.359Z,76.28
2023-01-17T02:51:39.001Z,76.69
2023-01-17T02:53:42.445Z,76.93
2023-01-17T02:55:46.839Z,76.31
2023-01-17T02:57:48.293Z,76.38
2023-01-17T02:59:54.047Z,76.15
2023-01-17T03:02:00.507Z,75.33
2023-01-17T03:04:08.232Z,75.20
2023-01-17T03:06:12.042Z,74.92
2023-01-17T03:08:13.564Z,74.88
2023-01-17T03:10:15.124Z,74.24
2023-01-17T03:12:16.635Z,74.83
2023-01-17T03:14:18.100Z,74.66
2023-01-17T03:16:21.238Z,74.15
2023-01-17T03:18:22.784Z,75.27
2023-01-17T03:20:24.262Z,74.59
2023-01-17T03:22:25.775Z,76.68
2023-01-17T03:24:27.221Z,77.10
2023-01-17T03:26:28.696Z,76.90
2023-01-17T03:28:30.168Z,77.97
2023-01-17T03:30:31.690Z,77.67
2023-01-17T03:32:33.205Z,76.97
2023-01-17T03:34:34.694Z,77.71
2023-01-17T03:36:36.122Z,77.82
2023-01-17T03:38:37.694Z,77.39
2023-01-17T03:40:39.167Z,77.82
2023-01-17T03:42:40.751Z,78.03
2023-01-17T03:44:42.234Z,77.77
2023-01-17T03:46:44.545Z,77.36
2023-01-17T03:48:46.102Z,77.24
2023-01-17T03:50:51.046Z,77.91
2023-01-17T03:52:52.529Z,77.56
2023-01-17T03:54:54.064Z,77.39
2023-01-17T03:56:55.569Z,77.83
2023-01-17T03:58:58.564Z,78.54
2023-01-17T04:01:00.155Z,78.63
2023-01-17T04:03:01.777Z,78.71
2023-01-17T04:05:03.431Z,78.92
2023-01-17T04:07:04.924Z,78.60
2023-01-17T04:09:06.344Z,78.65
2023-01-17T04:11:07.895Z,78.28
2023-01-17T04:13:09.343Z,78.51
2023-01-17T04:15:11.017Z,78.87
2023-01-17T04:17:12.500Z,78.50
2023-01-17T04:19:14.058Z,78.39
2023-01-17T04:21:15.558Z,79.81
2023-01-17T04:23:17.403Z,80.01
2023-01-17T04:25:20.021Z,80.11
2023-01-17T04:27:21.522Z,78.96
2023-01-17T04:29:22.950Z,79.26
2023-01-17T04:31:24.498Z,79.01
2023-01-17T04:33:25.983Z,78.57
2023-01-17T04:35:29.120Z,79.13
2023-01-17T04:37:30.561Z,78.31
2023-01-17T04:39:32.053Z,78.17
2023-01-17T04:41:34.179Z,78.36
2023-01-17T04:43:35.747Z,78.61
2023-01-17T04:45:38.849Z,78.21
2023-01-17T04:47:40.590Z,78.22
2023-01-17T04:49:44.077Z,78.44
2023-01-17T04:51:45.711Z,78.70
2023-01-17T04:53:47.202Z,79.53
2023-01-17T04:55:48.723Z,80.50
2023-01-17T04:57:50.204Z,79.83
2023-01-17T04:59:53.654Z,79.89
2023-01-17T05:01:55.152Z,79.42
2023-01-17T05:03:56.711Z,78.44
2023-01-17T05:05:58.418Z,79.03
2023-01-17T05:07:59.957Z,78.33
2023-01-17T05:10:01.420Z,78.33
2023-01-17T05:12:02.953Z,78.31
2023-01-17T05:14:04.653Z,78.00
2023-01-17T05:16:06.417Z,77.40
2023-01-17T05:18:10.925Z,76.97
2023-01-17T05:20:12.460Z,76.37
2023-01-17T05:22:17.238Z,76.68
2023-01-17T05:24:18.885Z,77.10
2023-01-17T05:26:20.389Z,76.84
2023-01-17T05:28:21.874Z,77.26
2023-01-17T05:30:23.415Z,77.69
2023-01-17T05:32:24.919Z,77.04
2023-01-17T05:34:26.378Z,77.48
2023-01-17T05:36:27.901Z,78.77
2023-01-17T05:38:29.598Z,79.72
2023-01-17T05:40:32.087Z,79.96
2023-01-17T05:42:33.926Z,79.38
2023-01-17T05:44:35.396Z,79.77
2023-01-17T05:46:37.120Z,78.71
2023-01-17T05:48:38.626Z,78.77
2023-01-17T05:50:40.101Z,78.71
2023-01-17T05:52:41.748Z,79.13
2023-01-17T05:54:43.248Z,78.11
2023-01-17T05:56:44.753Z,79.02
2023-01-17T05:58:46.259Z,79.35
2023-01-17T06:00:47.951Z,78.36
2023-01-17T06:02:49.528Z,77.89
2023-01-17T06:04:51.166Z,77.83
2023-01-17T06:06:52.697Z,78.09
2023-01-17T06:08:54.155Z,78.04
2023-01-17T06:10:55.775Z,77.82
2023-01-17T06:13:01.288Z,77.69
2023-01-17T06:15:02.858Z,77.02
2023-01-17T06:17:04.800Z,76.58
2023-01-17T06:19:06.321Z,76.26
2023-01-17T06:21:07.828Z,75.90
2023-01-17T06:23:12.844Z,76.24
2023-01-17T06:25:14.451Z,76.38
2023-01-17T06:27:16.044Z,77.23
2023-01-17T06:29:17.523Z,76.57
2023-01-17T06:31:19.068Z,76.51
2023-01-17T06:33:20.610Z,76.04
2023-01-17T06:35:22.469Z,76.37
2023-01-17T06:37:24.431Z,76.12
2023-01-17T06:39:25.897Z,75.75
2023-01-17T06:41:27.448Z,75.73
2023-01-17T06:43:32.867Z,76.26
2023-01-17T06:45:34.668Z,76.55
2023-01-17T06:47:39.715Z,77.96
2023-01-17T06:49:41.238Z,77.88
2023-01-17T06:51:43.716Z,76.72
2023-01-17T06:53:45.377Z,76.20
2023-01-17T06:55:47.046Z,77.13
2023-01-17T06:57:50.163Z,76.90
2023-01-17T06:59:51.651Z,76.28
2023-01-17T07:01:53.494Z,76.04
2023-01-17T07:03:54.999Z,75.68
2023-01-17T07:05:56.466Z,75.05
2023-01-17T07:07:58.029Z,75.57
2023-01-17T07:10:00.459Z,75.07
2023-01-17T07:12:02.167Z,74.65
2023-01-17T07:14:03.987Z,73.50
2023-01-17T07:16:05.930Z,72.85
2023-01-17T07:18:07.611Z,72.77
2023-01-17T07:20:09.592Z,72.41
2023-01-17T07:22:11.108Z,71.72
2023-01-17T07:24:12.693Z,71.38
2023-01-17T07:26:14.654Z,71.17
2023-01-17T07:28:16.126Z,70.04
2023-01-17T07:30:17.711Z,69.55
2023-01-17T07:32:19.190Z,69.82
2023-01-17T07:34:20.684Z,68.89
2023-01-17T07:36:22.948Z,67.49
2023-01-17T07:38:24.461Z,67.21
2023-01-17T07:40:27.044Z,66.35
2023-01-17T07:42:28.632Z,66.30
2023-01-17T07:44:30.153Z,65.91
2023-01-17T07:46:31.737Z,64.69
2023-01-17T07:48:33.306Z,64.34
2023-01-17T07:50:34.919Z,62.93
2023-01-17T07:52:36.384Z,62.57
2023-01-17T07:54:37.965Z,62.21
2023-01-17T07:56:40.110Z,61.45
2023-01-17T07:58:41.667Z,60.73
2023-01-17T08:00:44.986Z,60.51
2023-01-17T08:02:46.604Z,60.09
2023-01-17T08:04:48.253Z,59.88
2023-01-17T08:06:51.985Z,59.37
2023-01-17T08:08:59.034Z,59.25
2023-01-17T08:11:00.558Z,58.98
2023-01-17T08:13:02.118Z,58.90
2023-01-17T08:15:03.687Z,58.26
2023-01-17T08:17:13.698Z,57.56
2023-01-17T08:19:15.521Z,57.44
2023-01-17T08:21:17.339Z,57.69
2023-01-17T08:23:18.828Z,57.31
2023-01-17T08:25:20.571Z,57.58
2023-01-17T08:27:22.060Z,57.11
2023-01-17T08:29:23.972Z,57.13
2023-01-17T08:31:25.573Z,57.03
2023-01-17T08:33:27.118Z,57.23
2023-01-17T08:35:28.901Z,56.75
2023-01-17T08:37:30.478Z,56.58
2023-01-17T08:39:31.956Z,56.43
2023-01-17T08:41:33.419Z,56.60
2023-01-17T08:43:34.995Z,56.65
2023-01-17T08:45:36.624Z,56.40
2023-01-17T08:47:38.343Z,56.31
2023-01-17T08:49:39.868Z,56.23
2023-01-17T08:51:41.571Z,56.44
2023-01-17T08:53:43.031Z,56.41
2023-01-17T08:55:44.600Z,56.06
2023-01-17T08:57:46.816Z,56.25
2023-01-17T08:59:48.549Z,56.15
2023-01-17T09:01:52.418Z,55.66
2023-01-17T09:03:54.094Z,55.88
2023-01-17T09:06:05.878Z,55.76
2023-01-17T09:08:07.570Z,55.61
2023-01-17T09:10:09.447Z,55.25
2023-01-17T09:12:10.997Z,55.36
2023-01-17T09:14:12.915Z,55.03
2023-01-17T09:16:14.458Z,54.53
2023-01-17T09:18:15.940Z,54.69
2023-01-17T09:20:17.597Z,54.34
2023-01-17T09:22:19.127Z,53.84
2023-01-17T09:24:20.638Z,53.79
2023-01-17T09:26:26.366Z,54.17
2023-01-17T09:28:27.862Z,53.58
2023-01-17T09:30:29.369Z,53.51
2023-01-17T09:32:30.933Z,53.79
2023-01-17T09:34:32.360Z,53.82
2023-01-17T09:36:34.073Z,53.78
2023-01-17T09:38:36.220Z,54.11
2023-01-17T09:40:38.888Z,53.79
2023-01-17T09:42:40.368Z,53.73
2023-01-17T09:44:42.968Z,53.37
2023-01-17T09:46:45.345Z,53.66
2023-01-17T09:48:46.892Z,53.61
2023-01-17T09:50:50.869Z,53.44
2023-01-17T09:53:00.786Z,53.06
2023-01-17T09:55:02.788Z,53.28
2023-01-17T09:57:17.230Z,53.12
2023-01-17T09:59:21.410Z,53.42
2023-01-17T10:01:23.067Z,53.12
2023-01-17T10:03:43.608Z,53.25
2023-01-17T10:06:03.697Z,53.36
2023-01-17T10:08:14.190Z,53.74
2023-01-17T10:10:34.570Z,53.32
2023-01-17T10:12:42.108Z,53.08
2023-01-17T10:14:46.420Z,53.13
2023-01-17T10:17:03.023Z,53.22
2023-01-17T10:19:10.417Z,53.40
2023-01-17T10:21:11.924Z,53.59
2023-01-17T10:23:35.214Z,53.56
2023-01-17T10:25:40.819Z,52.90
2023-01-17T10:27:45.586Z,52.87
2023-01-17T10:29:48.030Z,53.38
2023-01-17T10:31:51.793Z,53.21
2023-01-17T10:33:53.633Z,52.98
2023-01-17T10:35:58.174Z,53.16
2023-01-17T10:37:59.731Z,52.90
2023-01-17T10:40:03.190Z,53.31
2023-01-17T10:42:13.115Z,52.85
2023-01-17T10:44:33.409Z,52.76
2023-01-17T10:46:35.141Z,52.50
2023-01-17T10:48:36.716Z,52.14
2023-01-17T10:50:58.442Z,52.07
2023-01-17T10:53:04.358Z,51.80
2023-01-17T10:55:09.676Z,52.25
2023-01-17T10:57:15.543Z,52.32
2023-01-17T10:59:20.221Z,51.51
2023-01-17T11:01:21.988Z,51.77
2023-01-17T11:03:24.750Z,52.22
2023-01-17T11:05:28.443Z,52.49
2023-01-17T11:07:30.003Z,52.30
2023-01-17T11:09:38.887Z,52.34
2023-01-17T11:11:52.694Z,52.36
2023-01-17T11:13:54.231Z,51.99
2023-01-17T11:15:58.181Z,51.89
2023-01-17T11:18:03.402Z,51.91
2023-01-17T11:20:21.087Z,51.84
2023-01-17T11:22:22.719Z,51.30
2023-01-17T11:24:47.921Z,50.78
2023-01-17T11:26:49.661Z,50.54
2023-01-17T11:28:52.299Z,50.39
2023-01-17T11:30:57.802Z,50.53
2023-01-17T11:33:09.042Z,51.13
2023-01-17T11:35:13.371Z,51.32
2023-01-17T11:37:17.889Z,50.71
2023-01-17T11:39:19.404Z,50.71
2023-01-17T11:41:21.057Z,49.88
2023-01-17T11:43:26.233Z,50.54
2023-01-17T11:45:28.725Z,50.81
2023-01-17T11:47:30.467Z,50.26
2023-01-17T11:49:32.027Z,50.60
2023-01-17T11:51:34.110Z,50.13
2023-01-17T11:53:37.159Z,50.11
2023-01-17T11:55:38.758Z,50.09
2023-01-17T11:57:40.297Z,49.89
2023-01-17T11:59:45.212Z,49.42
2023-01-17T12:01:55.922Z,49.45
2023-01-17T12:04:03.510Z,48.68
2023-01-17T12:06:13.680Z,48.34
2023-01-17T12:08:26.961Z,49.05
2023-01-17T12:10:36.684Z,49.29
2023-01-17T12:12:56.679Z,48.91
2023-01-17T12:15:16.710Z,49.30
2023-01-17T12:17:33.302Z,49.49
2023-01-17T12:19:34.873Z,49.19
2023-01-17T12:21:39.462Z,48.74
2023-01-17T12:23:44.011Z,49.00
2023-01-17T12:25:45.558Z,49.26
2023-01-17T12:27:53.001Z,49.25
2023-01-17T12:30:00.600Z,49.77
2023-01-17T12:32:08.055Z,49.35
2023-01-17T12:34:24.570Z,49.30
2023-01-17T12:36:26.044Z,49.48
2023-01-17T12:38:33.483Z,49.04
2023-01-17T12:40:42.919Z,49.14
2023-01-17T12:42:48.782Z,48.89
2023-01-17T12:45:09.102Z,48.71
2023-01-17T12:47:10.914Z,48.37
2023-01-17T12:49:21.496Z,48.33
2023-01-17T12:51:29.059Z,48.55
2023-01-17T12:53:32.824Z,48.54
2023-01-17T12:55:42.151Z,48.40
2023-01-17T12:57:45.457Z,47.98
2023-01-17T12:59:56.272Z,47.49
2023-01-17T13:01:58.751Z,48.11
2023-01-17T13:04:03.645Z,47.95
2023-01-17T13:06:05.268Z,47.99
2023-01-17T13:08:22.064Z,47.33
2023-01-17T13:10:23.582Z,47.88
2023-01-17T13:12:25.157Z,47.42
2023-01-17T13:14:45.359Z,47.69
2023-01-17T13:16:57.916Z,47.85
2023-01-17T13:19:01.708Z,47.94
2023-01-17T13:21:24.101Z,47.77
2023-01-17T13:23:28.308Z,48.35
2023-01-17T13:25:32.525Z,47.00
2023-01-17T13:27:43.292Z,46.93
2023-01-17T13:29:44.809Z,47.19
2023-01-17T13:31:48.314Z,47.08
2023-01-17T13:34:10.279Z,47.60
2023-01-17T13:36:18.260Z,47.20
2023-01-17T13:38:25.975Z,47.39
2023-01-17T13:40:42.540Z,47.15
2023-01-17T13:42:50.084Z,47.40
2023-01-17T13:44:51.601Z,46.97
2023-01-17T13:47:01.067Z,47.31
2023-01-17T13:49:23.457Z,46.97
2023-01-17T13:51:26.096Z,47.47
2023-01-17T13:53:27.725Z,47.31
2023-01-17T13:55:43.780Z,47.25
2023-01-17T13:57:46.827Z,47.47
2023-01-17T13:59:48.346Z,47.61
2023-01-17T14:01:50.326Z,47.65
2023-01-17T14:03:52.071Z,47.40
2023-01-17T14:05:56.840Z,47.79
2023-01-17T14:08:04.488Z,47.79
2023-01-17T14:10:29.336Z,47.58
2023-01-17T14:12:31.521Z,47.34
2023-01-17T14:14:42.833Z,47.47
2023-01-17T14:16:46.259Z,47.75
2023-01-17T14:18:48.148Z,47.71
2023-01-17T14:20:50.207Z,47.45
2023-01-17T14:22:53.462Z,47.43
2023-01-17T14:25:15.100Z,47.73
2023-01-17T14:27:16.860Z,47.59
2023-01-17T14:29:37.116Z,47.91
2023-01-17T14:31:38.657Z,47.94
2023-01-17T14:33:40.701Z,47.77
2023-01-17T14:35:50.236Z,47.86
2023-01-17T14:37:52.405Z,48.35
2023-01-17T14:39:53.897Z,48.38
2023-01-17T14:41:55.394Z,48.24
2023-01-17T14:43:56.864Z,47.90
2023-01-17T14:46:16.824Z,47.95
2023-01-17T14:48:20.111Z,48.08
2023-01-17T14:50:23.174Z,47.63
2023-01-17T14:52:24.662Z,48.20
2023-01-17T14:54:26.462Z,48.09
2023-01-17T14:56:28.707Z,48.20
2023-01-17T14:58:34.369Z,48.56
2023-01-17T15:00:38.421Z,48.71
2023-01-17T15:02:43.375Z,48.87
2023-01-17T15:04:45.140Z,48.80
2023-01-17T15:06:48.171Z,49.02
2023-01-17T15:08:49.822Z,49.06
2023-01-17T15:10:56.259Z,49.65
2023-01-17T15:12:57.955Z,50.03
2023-01-17T15:14:59.503Z,49.63
2023-01-17T15:17:09.907Z,49.97
2023-01-17T15:19:12.864Z,49.52
2023-01-17T15:21:19.299Z,49.65
2023-01-17T15:23:21.385Z,49.82
2023-01-17T15:25:22.834Z,49.81
2023-01-17T15:27:25.113Z,49.83
2023-01-17T15:29:27.303Z,49.92
2023-01-17T15:31:44.987Z,49.67
2023-01-17T15:33:47.131Z,49.95
2023-01-17T15:35:48.620Z,49.61
2023-01-17T15:37:53.875Z,50.15
2023-01-17T15:40:13.981Z,50.69
2023-01-17T15:42:25.871Z,50.19
2023-01-17T15:44:42.625Z,50.57
2023-01-17T15:46:48.890Z,51.19
2023-01-17T15:48:51.768Z,51.45
2023-01-17T15:50:59.812Z,51.39
2023-01-17T15:53:02.284Z,51.41
2023-01-17T15:55:13.272Z,51.23
2023-01-17T15:57:14.851Z,51.47
2023-01-17T15:59:22.925Z,51.55
2023-01-17T16:01:25.145Z,52.11
2023-01-17T16:03:29.407Z,51.83
2023-01-17T16:05:33.377Z,52.33
2023-01-17T16:07:35.468Z,52.25
2023-01-17T16:09:41.695Z,52.38
2023-01-17T16:11:44.087Z,52.12
2023-01-17T16:13:47.396Z,52.24
2023-01-17T16:15:49.040Z,52.76
2023-01-17T16:17:52.166Z,52.72
2023-01-17T16:19:53.934Z,53.35
2023-01-17T16:21:57.128Z,53.35
2023-01-17T16:23:59.345Z,54.29
2023-01-17T16:26:00.800Z,54.06
2023-01-17T16:28:02.516Z,53.73
2023-01-17T16:30:04.372Z,54.55
2023-01-17T16:32:08.851Z,54.70
2023-01-17T16:34:12.035Z,55.24
2023-01-17T16:36:15.042Z,56.04
2023-01-17T16:38:17.653Z,56.42
2023-01-17T16:40:19.804Z,57.72
2023-01-17T16:42:21.264Z,58.21
2023-01-17T16:44:22.855Z,58.53
2023-01-17T16:46:25.098Z,58.42
2023-01-17T16:48:45.745Z,58.58
2023-01-17T16:50:52.370Z,59.41
2023-01-17T16:52:54.336Z,59.55
2023-01-17T16:54:55.825Z,59.50
2023-01-17T16:56:57.330Z,59.92
2023-01-17T16:58:59.028Z,60.19
2023-01-17T17:01:00.568Z,60.22
2023-01-17T17:03:02.111Z,59.15
2023-01-17T17:05:05.503Z,58.87
2023-01-17T17:07:06.954Z,59.19
2023-01-17T17:09:08.556Z,59.43
2023-01-17T17:11:13.324Z,59.66
2023-01-17T17:13:14.825Z,59.18
2023-01-17T17:15:16.423Z,58.88
2023-01-17T17:17:17.997Z,58.68
2023-01-17T17:19:19.800Z,59.12
2023-01-17T17:21:21.355Z,59.23
2023-01-17T17:23:22.843Z,58.68
2023-01-17T17:25:24.386Z,58.23
2023-01-17T17:27:27.867Z,58.00
2023-01-17T17:29:29.376Z,57.88
2023-01-17T17:31:31.038Z,57.83
2023-01-17T17:33:32.539Z,57.73
2023-01-17T17:35:34.917Z,57.81
2023-01-17T17:37:37.529Z,57.69
2023-01-17T17:39:39.135Z,57.70
2023-01-17T17:41:44.574Z,57.64
2023-01-17T17:43:46.421Z,57.65
2023-01-17T17:45:48.834Z,57.34
2023-01-17T17:47:50.530Z,56.30
2023-01-17T17:49:52.203Z,56.51
2023-01-17T17:51:53.637Z,56.97
2023-01-17T17:53:55.573Z,56.38
2023-01-17T17:56:01.880Z,56.73
2023-01-17T17:58:03.405Z,57.50
2023-01-17T18:00:05.327Z,57.25
2023-01-17T18:02:10.866Z,57.20
2023-01-17T18:04:12.550Z,56.94
2023-01-17T18:06:17.493Z,56.73
2023-01-17T18:08:19.029Z,56.13
2023-01-17T18:10:20.578Z,56.17
2023-01-17T18:12:22.165Z,55.86
2023-01-17T18:14:24.480Z,56.24
2023-01-17T18:16:36.063Z,56.32
2023-01-17T18:18:39.171Z,56.66
2023-01-17T18:20:40.764Z,56.63
2023-01-17T18:22:42.368Z,57.40
2023-01-17T18:24:43.908Z,57.75
2023-01-17T18:26:52.083Z,58.23
2023-01-17T18:28:54.078Z,59.18
2023-01-17T18:30:55.745Z,58.86
2023-01-17T18:32:57.436Z,60.02
2023-01-17T18:34:58.949Z,59.31
2023-01-17T18:37:00.507Z,59.46
2023-01-17T18:39:02.359Z,59.37
2023-01-17T18:41:04.901Z,59.82
2023-01-17T18:43:06.371Z,60.64
2023-01-17T18:45:08.346Z,60.95
2023-01-17T18:47:11.065Z,62.08
2023-01-17T18:49:13.087Z,62.55
2023-01-17T18:51:15.830Z,62.65
2023-01-17T18:53:17.692Z,63.05
2023-01-17T18:55:19.175Z,63.47
2023-01-17T18:57:20.667Z,63.75
2023-01-17T18:59:23.595Z,63.84
2023-01-17T19:01:26.175Z,65.39
2023-01-17T19:03:28.948Z,65.36
2023-01-17T19:05:30.454Z,65.25
2023-01-17T19:07:33.335Z,64.37
2023-01-17T19:09:35.165Z,64.43
2023-01-17T19:11:36.940Z,63.73
2023-01-17T19:13:38.866Z,63.46
2023-01-17T19:15:41.762Z,63.18
2023-01-17T19:17:43.195Z,63.22
2023-01-17T19:19:44.803Z,62.13
2023-01-17T19:21:46.450Z,62.20
2023-01-17T19:23:48.248Z,62.53
2023-01-17T19:25:53.848Z,62.50
2023-01-17T19:27:55.671Z,62.01
2023-01-17T19:29:57.358Z,61.78
2023-01-17T19:31:59.009Z,61.41
2023-01-17T19:34:00.587Z,60.06
2023-01-17T19:36:03.784Z,59.58
2023-01-17T19:38:05.425Z,58.45
2023-01-17T19:40:08.317Z,57.57
2023-01-17T19:42:15.508Z,57.10
2023-01-17T19:44:17.068Z,56.51
2023-01-17T19:46:19.701Z,56.32
2023-01-17T19:48:22.570Z,56.46
2023-01-17T19:50:24.107Z,55.45
2023-01-17T19:52:26.366Z,55.21
2023-01-17T19:54:27.823Z,54.88
2023-01-17T19:56:29.515Z,54.72
2023-01-17T19:58:31.434Z,54.26
2023-01-17T20:00:45.939Z,53.90
2023-01-17T20:02:47.928Z,53.45
2023-01-17T20:04:49.589Z,53.22
2023-01-17T20:06:51.121Z,53.08
2023-01-17T20:08:52.651Z,53.11
2023-01-17T20:10:54.426Z,52.82
2023-01-17T20:12:55.925Z,52.33
2023-01-17T20:14:57.418Z,52.45
2023-01-17T20:16:58.947Z,51.87
2023-01-17T20:19:02.550Z,51.93
2023-01-17T20:21:04.329Z,51.21
2023-01-17T20:23:06.407Z,51.19
2023-01-17T20:25:08.642Z,51.14
2023-01-17T20:27:10.229Z,51.26
2023-01-17T20:29:12.998Z,50.78
2023-01-17T20:31:20.720Z,51.20
2023-01-17T20:33:23.210Z,51.13
2023-01-17T20:35:24.772Z,50.95
2023-01-17T20:37:26.267Z,50.48
2023-01-17T20:39:27.896Z,50.53
2023-01-17T20:41:33.373Z,50.54
2023-01-17T20:43:35.064Z,50.69
2023-01-17T20:45:36.547Z,50.46
2023-01-17T20:47:38.212Z,50.67
2023-01-17T20:49:41.604Z,50.64
2023-01-17T20:51:44.399Z,50.95
2023-01-17T20:53:46.678Z,50.68
2023-01-17T20:55:48.587Z,50.96
2023-01-17T20:57:50.418Z,50.90
2023-01-17T20:59:52.383Z,50.82
2023-01-17T21:01:53.915Z,51.08
2023-01-17T21:03:55.479Z,50.58
2023-01-17T21:06:06.238Z,50.83
2023-01-17T21:08:07.721Z,51.27
2023-01-17T21:10:09.722Z,51.03
2023-01-17T21:12:11.145Z,51.20
2023-01-17T21:14:12.580Z,51.24
2023-01-17T21:16:16.471Z,51.19
2023-01-17T21:18:18.689Z,51.11
2023-01-17T21:20:20.316Z,51.52
2023-01-17T21:22:21.756Z,50.89
2023-01-17T21:24:23.649Z,51.49
2023-01-17T21:26:28.421Z,51.20
2023-01-17T21:28:31.088Z,51.27
2023-01-17T21:30:33.130Z,51.60
2023-01-17T21:32:34.646Z,51.33
2023-01-17T21:34:36.192Z,51.24
2023-01-17T21:36:38.827Z,51.83
2023-01-17T21:38:40.386Z,52.18
2023-01-17T21:40:42.384Z,52.13
2023-01-17T21:42:43.936Z,52.41
2023-01-17T21:44:45.491Z,52.48
2023-01-17T21:46:47.219Z,52.88
2023-01-17T21:48:48.653Z,52.65
2023-01-17T21:50:52.705Z,52.01
2023-01-17T21:52:54.198Z,52.24
2023-01-17T21:55:14.563Z,51.77
2023-01-17T21:57:36.049Z,52.49
2023-01-17T21:59:37.498Z,52.32
2023-01-17T22:01:38.987Z,52.35
2023-01-17T22:03:40.571Z,52.06
2023-01-17T22:05:42.085Z,52.60
2023-01-17T22:08:03.690Z,52.39
2023-01-17T22:10:05.597Z,52.71
2023-01-17T22:12:07.114Z,52.85
2023-01-17T22:14:08.689Z,53.00
2023-01-17T22:16:11.490Z,52.77
2023-01-17T22:18:13.274Z,52.44
2023-01-17T22:20:14.987Z,52.60
2023-01-17T22:22:16.503Z,52.72
2023-01-17T22:24:18.068Z,52.19
2023-01-17T22:26:20.184Z,52.54
2023-01-17T22:28:21.692Z,52.49
2023-01-17T22:30:23.203Z,51.98
2023-01-17T22:32:24.842Z,51.52
2023-01-17T22:34:26.305Z,51.63
2023-01-17T22:36:28.103Z,51.68
2023-01-17T22:38:30.074Z,51.37
2023-01-17T22:40:32.831Z,51.68
2023-01-17T22:42:34.466Z,51.80
2023-01-17T22:44:35.956Z,52.02
2023-01-17T22:46:38.553Z,51.65
2023-01-17T22:48:40.054Z,51.88
2023-01-17T22:50:41.599Z,51.46
2023-01-17T22:52:43.314Z,51.95
2023-01-17T22:54:44.900Z,51.69
2023-01-17T22:56:46.501Z,51.89
2023-01-17T22:58:49.107Z,50.97
2023-01-17T23:00:51.083Z,51.38
2023-01-17T23:02:53.375Z,51.81
2023-01-17T23:04:54.842Z,51.60
2023-01-17T23:06:56.425Z,52.04
2023-01-17T23:08:58.919Z,52.03
2023-01-17T23:11:19.064Z,51.95
2023-01-17T23:13:20.690Z,52.31
2023-01-17T23:15:40.898Z,52.35
2023-01-17T23:18:00.843Z,52.55
2023-01-17T23:20:02.272Z,52.30
2023-01-17T23:22:16.482Z,52.15
2023-01-17T23:24:17.972Z,52.19
2023-01-17T23:26:19.414Z,52.15
2023-01-17T23:28:21.056Z,52.03
2023-01-17T23:30:26.860Z,51.77
2023-01-17T23:32:28.303Z,51.88
2023-01-17T23:34:29.786Z,51.49
2023-01-17T23:36:31.249Z,52.07
2023-01-17T23:38:37.672Z,52.15
2023-01-17T23:40:39.586Z,51.73
2023-01-17T23:42:59.645Z,52.07
2023-01-17T23:45:01.744Z,52.00
2023-01-17T23:47:03.229Z,52.12
2023-01-17T23:49:04.696Z,52.00
2023-01-17T23:51:09.160Z,51.86
2023-01-17T23:53:11.944Z,52.08
2023-01-17T23:55:13.771Z,51.91
2023-01-17T23:57:15.271Z,51.47
2023-01-17T23:59:16.895Z,51.73
